Current Conditions
Overcast
Conditions



Pressure
1013.88 (hPa) - 29.94 (inHG)
Visibility

3.7 (miles) - 6.0 (km)
Temperature
12  °C
Temperature
11  °C
Dewpoint
94  %
 Humidity
Wind Speed
9  mph
8  kts
14  km/h
4.0  m/s
Wind Direction
N
45°
E
90°
135°
S
180°
225°
W
270°
315°
 170°

Due South
Airport Data
EGVO
RAF Odiham
Metar :EGVO 280320Z AUTO 17008KT 6000 // OVC004/// 12/11 Q1014
Tue 28th May 04:20 am
Raw Metar Info
Raw METAR is the most common format in the world for the transmission of observational weather data. It is highly standardized through the International Civil Aviation Organization (ICAO), which allows it to be understood throughout most of the world.
API Info
Data Provided by
https://www.checkwx.com/weather/EGVO

Aviation Weather providing METAR, TAF, AIRMET, SIGMET and OUTLOOK Weather Reports
© Info
CSS/SVG/PHP scripts were developed by weather34.com for use in the weather34 template © 2015-2024

Guide Info provided by Metar-Wikipedia